Time;durP1;ratioP1;P1;durP2;ratioP2;P2;SDS_P1;SDS_P2;PMS_P1;PMS_P2;Temp;Humidity;BMP_temperature;BMP_pressure;BME280_temperature;BME280_humidity;BME280_pressure;Samples;Min_cycle;Max_cycle;Signal;HPM_P1;HPM_P2
2022/12/30 00:00:21;;;;;;;;;;;7.30;99.90;;;;;;5051624;28;19908;-52
2022/12/30 00:02:46;;;;;;;;;;;7.30;99.90;;;;;;5051794;28;19909;-51
2022/12/30 00:05:12;;;;;;;;;;;7.30;99.90;;;;;;5051592;28;19920;-50
2022/12/30 00:07:38;;;;;;;;;;;7.30;99.90;;;;;;5051503;28;19922;-49
2022/12/30 00:10:04;;;;;;;;;;;7.30;99.90;;;;;;5051313;28;19908;-50
2022/12/30 00:34:35;;;;;;;;;;;6.90;99.90;;;;;;5051343;28;19916;-54
2022/12/30 00:37:01;;;;;;;;;;;6.90;99.90;;;;;;5051093;28;19952;-51
2022/12/30 00:39:26;;;;;;;;;;;6.90;99.90;;;;;;5050880;28;19908;-52
2022/12/30 00:44:36;;;;;;;;;;;6.80;99.90;;;;;;5051134;28;19916;-52
2022/12/30 00:47:03;;;;;;;;;;;6.80;99.90;;;;;;5050903;28;20175;-49
2022/12/30 00:57:41;;;;;;;;;;;6.70;99.90;;;;;;5050693;28;20399;-50
2022/12/30 01:00:11;;;;;;;;;;;6.70;99.90;;;;;;5049281;28;19940;-54
2022/12/30 01:02:36;;;;;;;;;;;6.70;99.90;;;;;;5051156;28;19908;-51
2022/12/30 01:05:02;;;;;;;;;;;6.70;99.90;;;;;;5051048;28;19908;-49
2022/12/30 01:07:28;;;;;;;;;;;6.70;99.90;;;;;;5050940;28;20288;-49
2022/12/30 01:09:54;;;;;;;;;;;6.70;99.90;;;;;;5050671;28;20004;-53
2022/12/30 01:12:20;;;;;;;;;;;6.70;99.90;;;;;;5050783;28;20399;-49
2022/12/30 01:14:47;;;;;;;;;;;6.60;99.90;;;;;;5050816;28;19912;-49
2022/12/30 01:17:14;;;;;;;;;;;6.60;99.90;;;;;;5050519;28;19908;-52
2022/12/30 01:19:40;;;;;;;;;;;6.50;99.90;;;;;;5050556;28;19986;-50
2022/12/30 01:22:06;;;;;;;;;;;6.50;99.90;;;;;;5050792;28;20432;-51
2022/12/30 01:24:32;;;;;;;;;;;6.50;99.90;;;;;;5050769;28;19913;-51
2022/12/30 01:26:57;;;;;;;;;;;6.50;99.90;;;;;;5050529;28;19919;-53
2022/12/30 01:29:28;;;;;;;;;;;6.50;99.90;;;;;;5050476;28;19967;-49
2022/12/30 01:31:54;;;;;;;;;;;6.50;99.90;;;;;;5050828;28;20288;-49
2022/12/30 01:34:20;;;;;;;;;;;6.50;99.90;;;;;;5050715;28;19909;-50
2022/12/30 01:36:46;;;;;;;;;;;6.50;99.90;;;;;;5050531;28;20398;-53
2022/12/30 01:39:11;;;;;;;;;;;6.50;99.90;;;;;;5051941;28;19978;-52
2022/12/30 01:41:37;;;;;;;;;;;6.50;99.90;;;;;;5054248;28;19991;-53
2022/12/30 01:44:22;;;;;;;;;;;6.50;99.90;;;;;;5053186;28;20293;-52
2022/12/30 01:46:48;;;;;;;;;;;6.50;99.90;;;;;;5053938;28;19913;-52
2022/12/30 01:49:14;;;;;;;;;;;6.40;99.90;;;;;;5054073;28;20320;-49
2022/12/30 01:51:39;;;;;;;;;;;6.40;99.90;;;;;;5053931;28;19919;-50
2022/12/30 01:54:05;;;;;;;;;;;6.40;99.90;;;;;;5054369;28;20284;-50
2022/12/30 01:56:35;;;;;;;;;;;6.40;99.90;;;;;;5053910;28;19919;-49
2022/12/30 01:59:01;;;;;;;;;;;6.40;99.90;;;;;;5054170;28;19915;-48
2022/12/30 02:01:27;;;;;;;;;;;6.40;99.90;;;;;;5054032;28;19908;-51
2022/12/30 02:04:04;;;;;;;;;;;6.40;99.90;;;;;;5054247;28;19909;-54
2022/12/30 02:06:38;;;;;;;;;;;6.40;99.90;;;;;;5053718;28;20327;-51
2022/12/30 02:09:04;;;;;;;;;;;6.40;99.90;;;;;;5053730;28;19913;-50
2022/12/30 02:11:32;;;;;;;;;;;6.30;99.90;;;;;;5053980;28;20348;-51
2022/12/30 02:13:58;;;;;;;;;;;6.30;99.90;;;;;;5054054;28;20352;-51
2022/12/30 02:16:34;;;;;;;;;;;6.20;99.90;;;;;;5054078;28;19952;-50
2022/12/30 02:19:06;;;;;;;;;;;6.20;99.90;;;;;;5053599;28;20328;-49
2022/12/30 02:21:43;;;;;;;;;;;6.20;99.90;;;;;;5053443;28;19916;-49
2022/12/30 02:24:22;;;;;;;;;;;6.10;99.90;;;;;;5053598;28;19909;-52
2022/12/30 02:27:00;;;;;;;;;;;6.20;99.90;;;;;;5053356;28;19913;-52
2022/12/30 02:29:26;;;;;;;;;;;6.20;99.90;;;;;;5053398;28;19908;-51
2022/12/30 02:31:55;;;;;;;;;;;6.10;99.90;;;;;;5053393;28;19909;-49
2022/12/30 02:34:27;;;;;;;;;;;6.10;99.90;;;;;;5053613;28;19909;-51
2022/12/30 02:36:55;;;;;;;;;;;6.00;99.90;;;;;;5053508;28;19961;-53
2022/12/30 02:39:30;;;;;;;;;;;6.00;99.90;;;;;;5053131;28;19909;-52
2022/12/30 02:45:03;;;;;;;;;;;6.00;99.90;;;;;;5053175;28;19915;-49
2022/12/30 02:47:33;;;;;;;;;;;6.00;99.90;;;;;;5053141;28;19999;-51
2022/12/30 02:52:48;;;;;;;;;;;5.90;99.90;;;;;;5053033;28;19923;-49
2022/12/30 02:55:14;;;;;;;;;;;6.00;99.90;;;;;;5053250;28;19912;-49
2022/12/30 02:57:40;;;;;;;;;;;5.90;99.90;;;;;;5052965;28;19908;-52
2022/12/30 03:06:06;;;;;;;;;;;6.00;99.90;;;;;;5052982;28;19924;-54
2022/12/30 03:08:35;;;;;;;;;;;5.90;99.90;;;;;;5052362;28;19909;-51
2022/12/30 03:11:13;;;;;;;;;;;5.90;99.90;;;;;;5052785;28;20270;-50
2022/12/30 03:13:58;;;;;;;;;;;5.90;99.90;;;;;;5052647;28;19909;-51
2022/12/30 03:16:27;;;;;;;;;;;5.90;99.90;;;;;;5052115;28;19920;-53
2022/12/30 03:18:54;;;;;;;;;;;5.90;99.90;;;;;;5052522;28;19909;-50
2022/12/30 03:21:21;;;;;;;;;;;5.90;99.90;;;;;;5052530;28;20159;-52
2022/12/30 03:29:33;;;;;;;;;;;5.90;99.90;;;;;;5043062;28;19955;-49
2022/12/30 03:31:58;;;;;;;;;;;5.90;99.90;;;;;;5052607;28;19916;-51
2022/12/30 03:34:24;;;;;;;;;;;5.90;99.90;;;;;;5052137;28;20301;-53
2022/12/30 03:36:52;;;;;;;;;;;5.80;99.90;;;;;;5052367;28;19962;-49
2022/12/30 03:39:27;;;;;;;;;;;5.80;99.90;;;;;;5052075;28;19916;-52
2022/12/30 03:41:53;;;;;;;;;;;5.80;99.90;;;;;;5052151;28;19909;-50
2022/12/30 03:44:20;;;;;;;;;;;5.80;99.90;;;;;;5052070;28;19955;-51
2022/12/30 03:46:46;;;;;;;;;;;5.70;99.90;;;;;;5051836;28;19913;-48
2022/12/30 03:49:12;;;;;;;;;;;5.80;99.90;;;;;;5051763;28;19915;-54
2022/12/30 03:51:37;;;;;;;;;;;5.80;99.90;;;;;;5051786;28;19928;-48
2022/12/30 03:54:03;;;;;;;;;;;5.80;99.90;;;;;;5052100;28;19909;-49
2022/12/30 03:56:29;;;;;;;;;;;5.80;99.90;;;;;;5052166;28;19957;-48
2022/12/30 03:58:54;;;;;;;;;;;5.80;99.90;;;;;;5051730;28;20369;-49
2022/12/30 04:01:20;;;;;;;;;;;5.80;99.90;;;;;;5051365;28;19962;-49
2022/12/30 04:03:46;;;;;;;;;;;5.70;99.90;;;;;;5051571;28;20396;-52
2022/12/30 04:06:11;;;;;;;;;;;5.80;99.90;;;;;;5051665;28;20389;-49
2022/12/30 04:08:37;;;;;;;;;;;5.80;99.90;;;;;;5051519;28;19909;-48
2022/12/30 04:11:03;;;;;;;;;;;5.80;99.90;;;;;;5051708;28;20011;-49
2022/12/30 04:13:28;;;;;;;;;;;5.80;99.90;;;;;;5051454;28;19908;-53
2022/12/30 04:15:54;;;;;;;;;;;5.80;99.90;;;;;;5051578;28;19997;-50
2022/12/30 04:18:20;;;;;;;;;;;5.80;99.90;;;;;;5051164;28;19915;-53
2022/12/30 04:20:46;;;;;;;;;;;5.80;99.90;;;;;;5051417;28;19916;-52
2022/12/30 04:23:12;;;;;;;;;;;5.80;99.90;;;;;;5051400;28;20323;-51
2022/12/30 04:25:37;;;;;;;;;;;5.80;99.90;;;;;;5051384;28;19958;-50
2022/12/30 04:28:03;;;;;;;;;;;5.80;99.90;;;;;;5051249;28;19999;-52
2022/12/30 04:30:29;;;;;;;;;;;5.80;99.90;;;;;;5049802;28;19915;-50
2022/12/30 04:32:54;;;;;;;;;;;5.80;99.90;;;;;;5051212;28;19958;-50
2022/12/30 04:35:20;;;;;;;;;;;5.80;99.90;;;;;;5051396;28;20350;-51
2022/12/30 04:37:49;;;;;;;;;;;5.80;99.90;;;;;;5051073;28;19991;-50
2022/12/30 04:40:15;;;;;;;;;;;5.80;99.90;;;;;;5050898;28;19952;-54
2022/12/30 04:42:40;;;;;;;;;;;5.80;99.90;;;;;;5051154;28;19963;-52
2022/12/30 04:45:06;;;;;;;;;;;5.70;99.90;;;;;;5051112;28;19916;-51
2022/12/30 04:47:32;;;;;;;;;;;5.70;99.90;;;;;;5049433;28;20354;-48
2022/12/30 04:49:57;;;;;;;;;;;5.70;99.90;;;;;;5050744;28;19999;-50
2022/12/30 04:52:24;;;;;;;;;;;5.60;99.90;;;;;;5051186;28;19979;-54
2022/12/30 04:54:50;;;;;;;;;;;5.70;99.90;;;;;;5051185;28;19909;-49
2022/12/30 04:57:15;;;;;;;;;;;5.60;99.90;;;;;;5050846;28;20301;-50
2022/12/30 04:59:41;;;;;;;;;;;5.50;99.90;;;;;;5050754;28;19908;-48
2022/12/30 05:02:07;;;;;;;;;;;5.50;99.90;;;;;;5050731;28;19909;-49
2022/12/30 05:04:32;;;;;;;;;;;5.50;99.90;;;;;;5050828;28;19909;-52
2022/12/30 05:06:58;;;;;;;;;;;5.50;99.90;;;;;;5050749;28;19913;-51
2022/12/30 05:09:23;;;;;;;;;;;5.40;99.90;;;;;;5051198;28;19975;-49
2022/12/30 05:11:49;;;;;;;;;;;5.40;99.90;;;;;;5050733;28;19916;-53
2022/12/30 05:14:15;;;;;;;;;;;5.40;99.90;;;;;;5052698;28;19913;-50
2022/12/30 05:16:40;;;;;;;;;;;5.30;99.90;;;;;;5053372;28;20415;-54
2022/12/30 05:19:06;;;;;;;;;;;5.40;99.90;;;;;;5055088;28;19916;-53
2022/12/30 05:21:31;;;;;;;;;;;5.30;99.90;;;;;;5054763;28;20297;-50
2022/12/30 05:26:41;;;;;;;;;;;5.30;99.90;;;;;;5054462;28;19924;-47
2022/12/30 05:29:07;;;;;;;;;;;5.30;99.90;;;;;;5054453;28;19909;-54
2022/12/30 05:31:32;;;;;;;;;;;5.20;99.90;;;;;;5054372;28;19951;-54
2022/12/30 05:33:58;;;;;;;;;;;5.20;99.90;;;;;;5054761;28;19969;-52
2022/12/30 05:36:23;;;;;;;;;;;5.20;99.90;;;;;;5054336;28;20524;-49
2022/12/30 05:38:49;;;;;;;;;;;5.20;99.90;;;;;;5054358;28;19920;-49
2022/12/30 05:41:15;;;;;;;;;;;5.20;99.90;;;;;;5053026;28;19909;-49
2022/12/30 05:43:40;;;;;;;;;;;5.20;99.90;;;;;;5054323;28;20003;-48
2022/12/30 05:46:06;;;;;;;;;;;5.20;99.90;;;;;;5054368;28;19919;-53
2022/12/30 05:48:31;;;;;;;;;;;5.20;99.90;;;;;;5053961;28;19909;-47
2022/12/30 05:50:57;;;;;;;;;;;5.20;99.90;;;;;;5053997;28;19982;-49
2022/12/30 05:53:22;;;;;;;;;;;5.10;99.90;;;;;;5054636;28;20349;-49
2022/12/30 05:55:48;;;;;;;;;;;5.10;99.90;;;;;;5054194;28;19909;-52
2022/12/30 05:58:14;;;;;;;;;;;5.10;99.90;;;;;;5053898;28;19920;-50
2022/12/30 06:00:39;;;;;;;;;;;5.10;99.90;;;;;;5053909;28;20360;-51
2022/12/30 06:03:05;;;;;;;;;;;5.00;99.90;;;;;;5054264;28;19955;-48
2022/12/30 06:05:31;;;;;;;;;;;5.10;99.90;;;;;;5053946;28;19924;-50
2022/12/30 06:07:56;;;;;;;;;;;5.10;99.90;;;;;;5054172;28;20356;-48
2022/12/30 06:10:22;;;;;;;;;;;5.10;99.90;;;;;;5053643;28;19915;-50
2022/12/30 06:12:47;;;;;;;;;;;5.10;99.90;;;;;;5053702;28;20331;-52
2022/12/30 06:15:13;;;;;;;;;;;5.10;99.90;;;;;;5053746;28;19908;-47
2022/12/30 06:17:39;;;;;;;;;;;5.20;99.90;;;;;;5053571;28;19909;-52
2022/12/30 06:20:05;;;;;;;;;;;5.20;99.90;;;;;;5053409;28;19912;-49
2022/12/30 06:22:30;;;;;;;;;;;5.20;99.90;;;;;;5053640;28;19921;-52
2022/12/30 06:24:56;;;;;;;;;;;5.30;99.90;;;;;;5052231;28;19916;-52
2022/12/30 06:27:21;;;;;;;;;;;5.30;99.90;;;;;;5053325;28;19912;-50
2022/12/30 06:29:48;;;;;;;;;;;5.30;99.90;;;;;;5053234;28;19963;-50
2022/12/30 06:32:14;;;;;;;;;;;5.30;99.90;;;;;;5053575;28;20361;-51
2022/12/30 06:34:40;;;;;;;;;;;5.30;99.90;;;;;;5053817;28;19916;-49
2022/12/30 06:37:05;;;;;;;;;;;5.30;99.90;;;;;;5053310;28;19995;-51
2022/12/30 06:39:31;;;;;;;;;;;5.40;99.90;;;;;;5053252;28;19912;-49
2022/12/30 06:41:56;;;;;;;;;;;5.40;99.90;;;;;;5053117;28;19909;-49
2022/12/30 06:44:22;;;;;;;;;;;5.40;99.90;;;;;;5053191;28;19908;-48
2022/12/30 06:46:47;;;;;;;;;;;5.50;99.90;;;;;;5052826;28;19912;-51
2022/12/30 06:49:13;;;;;;;;;;;5.50;99.90;;;;;;5053051;28;19912;-52
2022/12/30 06:51:39;;;;;;;;;;;5.40;99.90;;;;;;5052991;28;19913;-53
2022/12/30 06:54:05;;;;;;;;;;;5.40;99.90;;;;;;5053166;28;20335;-52
2022/12/30 06:56:30;;;;;;;;;;;5.50;99.90;;;;;;5052788;28;19913;-49
2022/12/30 06:58:56;;;;;;;;;;;5.50;99.90;;;;;;5052712;28;19909;-49
2022/12/30 07:01:21;;;;;;;;;;;5.50;99.90;;;;;;5052981;28;19948;-53
2022/12/30 07:03:47;;;;;;;;;;;5.60;99.90;;;;;;5052774;28;19915;-53
2022/12/30 07:06:13;;;;;;;;;;;5.50;99.90;;;;;;5052820;28;19966;-50
2022/12/30 07:08:38;;;;;;;;;;;5.60;99.90;;;;;;5052565;28;20332;-51
2022/12/30 07:11:04;;;;;;;;;;;5.60;99.90;;;;;;5052710;28;20127;-50
2022/12/30 07:13:29;;;;;;;;;;;5.60;99.90;;;;;;5052925;28;20335;-51
2022/12/30 07:15:55;;;;;;;;;;;5.60;99.90;;;;;;5052740;28;19952;-52
2022/12/30 07:18:21;;;;;;;;;;;5.60;99.90;;;;;;5051218;28;19904;-50
2022/12/30 07:20:46;;;;;;;;;;;5.70;99.90;;;;;;5052349;28;20221;-53
2022/12/30 07:23:12;;;;;;;;;;;5.70;99.90;;;;;;5052574;28;19962;-49
2022/12/30 07:25:37;;;;;;;;;;;5.70;99.90;;;;;;5052329;28;19913;-53
2022/12/30 07:28:04;;;;;;;;;;;5.70;99.90;;;;;;5052208;28;19909;-50
2022/12/30 07:30:30;;;;;;;;;;;5.70;99.90;;;;;;5052224;28;20362;-49
2022/12/30 07:32:56;;;;;;;;;;;5.70;99.90;;;;;;5052682;28;19961;-54
2022/12/30 07:35:22;;;;;;;;;;;5.80;99.90;;;;;;5052409;28;19909;-53
2022/12/30 07:37:48;;;;;;;;;;;5.80;99.90;;;;;;5051401;28;20038;-50
2022/12/30 07:40:14;;;;;;;;;;;5.80;99.90;;;;;;5051805;28;19909;-52
2022/12/30 07:42:40;;;;;;;;;;;5.90;99.90;;;;;;5052142;28;19908;-50
2022/12/30 07:45:06;;;;;;;;;;;5.90;99.90;;;;;;5052106;28;19913;-51
2022/12/30 07:47:32;;;;;;;;;;;5.90;99.90;;;;;;5051716;28;19920;-48
2022/12/30 07:49:58;;;;;;;;;;;6.00;99.90;;;;;;5052105;28;19989;-50
2022/12/30 07:52:24;;;;;;;;;;;6.10;99.90;;;;;;5052069;28;19986;-52
2022/12/30 07:54:50;;;;;;;;;;;6.10;99.90;;;;;;5051930;28;20002;-52
2022/12/30 07:57:15;;;;;;;;;;;6.10;99.90;;;;;;5051701;28;19905;-49
2022/12/30 07:59:41;;;;;;;;;;;6.10;99.90;;;;;;5051820;28;19915;-50
2022/12/30 08:02:08;;;;;;;;;;;6.20;99.90;;;;;;5051606;28;20286;-51
2022/12/30 08:04:33;;;;;;;;;;;6.20;99.90;;;;;;5051796;28;19962;-49
2022/12/30 08:06:59;;;;;;;;;;;6.20;99.90;;;;;;5051383;28;19917;-50
2022/12/30 08:09:24;;;;;;;;;;;6.30;99.90;;;;;;5051455;28;19913;-48
2022/12/30 08:11:50;;;;;;;;;;;6.30;99.90;;;;;;5051819;28;20427;-50
2022/12/30 08:14:16;;;;;;;;;;;6.30;99.90;;;;;;5051388;28;19912;-52
2022/12/30 08:16:41;;;;;;;;;;;6.30;99.90;;;;;;5051525;28;19916;-49
2022/12/30 08:19:07;;;;;;;;;;;6.40;99.90;;;;;;5051186;28;20305;-52
2022/12/30 08:21:32;;;;;;;;;;;6.50;99.90;;;;;;5051433;28;19952;-48
2022/12/30 08:23:58;;;;;;;;;;;6.50;99.90;;;;;;5051373;28;19944;-49
2022/12/30 08:26:24;;;;;;;;;;;6.50;99.90;;;;;;5051510;28;20334;-53
2022/12/30 08:28:50;;;;;;;;;;;6.60;99.90;;;;;;5051161;28;19984;-47
2022/12/30 08:31:17;;;;;;;;;;;6.60;99.90;;;;;;5051240;28;20384;-49
2022/12/30 08:33:43;;;;;;;;;;;6.60;99.90;;;;;;5051267;28;19908;-51
2022/12/30 08:36:10;;;;;;;;;;;6.70;99.90;;;;;;5051382;28;19913;-52
2022/12/30 08:38:37;;;;;;;;;;;6.80;99.90;;;;;;5050835;28;20364;-52
2022/12/30 08:41:04;;;;;;;;;;;6.90;99.90;;;;;;5051085;28;20003;-48
2022/12/30 08:43:29;;;;;;;;;;;6.90;99.90;;;;;;5051208;28;20280;-49
2022/12/30 08:45:56;;;;;;;;;;;6.90;99.90;;;;;;5051021;28;19916;-50
2022/12/30 08:48:22;;;;;;;;;;;7.00;99.90;;;;;;5050927;28;19908;-48
2022/12/30 08:50:47;;;;;;;;;;;7.00;99.90;;;;;;5062235;22;20623;-52
2022/12/30 08:53:13;;;;;;;;;;;7.10;99.90;;;;;;5051359;28;19913;-49
2022/12/30 08:55:39;;;;;;;;;;;7.10;99.90;;;;;;5051076;28;19908;-51
2022/12/30 08:58:04;;;;;;;;;;;7.20;99.90;;;;;;5050711;28;19916;-52
2022/12/30 09:00:30;;;;;;;;;;;7.20;99.90;;;;;;5050639;28;19908;-51
2022/12/30 09:02:56;;;;;;;;;;;7.30;99.90;;;;;;5050971;28;19912;-55
2022/12/30 09:05:21;;;;;;;;;;;7.30;99.90;;;;;;5050808;28;20007;-50
2022/12/30 09:07:47;;;;;;;;;;;7.30;99.90;;;;;;5050962;28;19912;-54
2022/12/30 09:10:13;;;;;;;;;;;7.40;99.90;;;;;;5050631;28;19965;-51
2022/12/30 09:12:39;;;;;;;;;;;7.50;99.90;;;;;;5050830;28;19913;-52
2022/12/30 09:15:06;;;;;;;;;;;7.50;99.90;;;;;;5050957;28;20384;-52
2022/12/30 09:17:31;;;;;;;;;;;7.50;99.90;;;;;;5050715;28;20023;-53
2022/12/30 09:19:57;;;;;;;;;;;7.70;99.90;;;;;;5050407;28;19959;-52
2022/12/30 09:22:22;;;;;;;;;;;7.70;99.90;;;;;;5050662;28;19909;-53
2022/12/30 09:24:48;;;;;;;;;;;7.80;99.90;;;;;;5050888;28;19959;-53
2022/12/30 09:27:13;;;;;;;;;;;7.80;99.90;;;;;;5050379;28;19916;-48
2022/12/30 09:29:39;;;;;;;;;;;7.90;99.90;;;;;;5050488;28;19935;-54
2022/12/30 09:32:04;;;;;;;;;;;8.00;99.90;;;;;;5050680;28;20369;-54
2022/12/30 09:34:30;;;;;;;;;;;8.00;99.90;;;;;;5050726;28;19912;-52
2022/12/30 09:36:56;;;;;;;;;;;8.10;99.90;;;;;;5050760;28;19912;-54
2022/12/30 09:39:30;;;;;;;;;;;8.10;99.90;;;;;;5050533;28;20373;-55
2022/12/30 09:44:50;;;;;;;;;;;8.10;99.90;;;;;;5050687;28;20488;-53
2022/12/30 09:47:21;;;;;;;;;;;8.20;99.90;;;;;;5050258;28;19917;-52
2022/12/30 09:49:49;;;;;;;;;;;8.20;99.90;;;;;;5050417;28;19921;-54
2022/12/30 09:52:14;;;;;;;;;;;8.20;99.90;;;;;;5050522;28;19920;-51
2022/12/30 09:54:44;;;;;;;;;;;8.30;99.90;;;;;;5050574;28;19908;-53
2022/12/30 09:59:55;;;;;;;;;;;8.40;99.90;;;;;;5051791;28;19908;-54
2022/12/30 10:02:22;;;;;;;;;;;8.40;99.90;;;;;;5054543;28;19915;-51
2022/12/30 10:04:48;;;;;;;;;;;8.50;99.90;;;;;;5054446;28;19935;-54
2022/12/30 10:07:25;;;;;;;;;;;8.60;99.90;;;;;;5054140;28;19909;-50
2022/12/30 10:10:06;;;;;;;;;;;8.80;99.90;;;;;;5054074;28;20037;-54
2022/12/30 10:12:50;;;;;;;;;;;9.00;99.90;;;;;;5054662;28;19915;-54
2022/12/30 10:15:16;;;;;;;;;;;9.20;99.90;;;;;;5054346;28;19909;-51
2022/12/30 10:17:53;;;;;;;;;;;9.40;99.90;;;;;;5054041;28;20383;-52
2022/12/30 10:20:38;;;;;;;;;;;9.70;99.90;;;;;;5053787;28;19909;-51
2022/12/30 10:23:11;;;;;;;;;;;9.90;99.90;;;;;;5054083;28;19912;-55
2022/12/30 10:25:58;;;;;;;;;;;10.10;99.90;;;;;;5054003;28;19920;-52
2022/12/30 10:28:34;;;;;;;;;;;10.00;99.90;;;;;;5053896;28;19909;-54
2022/12/30 10:31:00;;;;;;;;;;;10.00;99.90;;;;;;5053816;28;20464;-51
2022/12/30 10:33:26;;;;;;;;;;;10.20;99.90;;;;;;5053958;28;19913;-50
2022/12/30 10:36:02;;;;;;;;;;;10.40;99.90;;;;;;5053871;28;19909;-54
2022/12/30 10:38:30;;;;;;;;;;;10.50;99.90;;;;;;5053566;28;19915;-53
2022/12/30 10:41:04;;;;;;;;;;;10.50;99.90;;;;;;5053766;28;20329;-51
2022/12/30 10:43:33;;;;;;;;;;;10.50;99.90;;;;;;5053691;28;19912;-52
2022/12/30 10:45:58;;;;;;;;;;;10.30;99.90;;;;;;5053665;28;19939;-52
2022/12/30 10:48:33;;;;;;;;;;;10.10;99.90;;;;;;5053386;28;19909;-53
2022/12/30 10:50:58;;;;;;;;;;;10.00;99.90;;;;;;5053315;28;19966;-52
2022/12/30 10:53:26;;;;;;;;;;;9.80;99.90;;;;;;5053444;28;19909;-51
2022/12/30 10:55:53;;;;;;;;;;;9.80;99.90;;;;;;5053432;28;19909;-52
2022/12/30 10:58:21;;;;;;;;;;;9.70;99.90;;;;;;5053255;28;19908;-50
2022/12/30 11:00:47;;;;;;;;;;;9.60;99.90;;;;;;5053443;28;20281;-54
2022/12/30 11:03:33;;;;;;;;;;;9.60;99.90;;;;;;5053427;28;19920;-54
2022/12/30 11:06:14;;;;;;;;;;;9.50;99.90;;;;;;5039094;28;19912;-52
2022/12/30 11:08:39;;;;;;;;;;;9.50;99.90;;;;;;5052885;28;20292;-55
2022/12/30 11:11:06;;;;;;;;;;;9.40;99.90;;;;;;5052146;28;19909;-53
2022/12/30 11:16:24;;;;;;;;;;;9.40;99.90;;;;;;5052967;28;20404;-51
2022/12/30 11:18:50;;;;;;;;;;;9.40;99.90;;;;;;5052646;28;20206;-53
2022/12/30 11:21:23;;;;;;;;;;;9.30;99.90;;;;;;5052740;28;19909;-53
2022/12/30 11:23:51;;;;;;;;;;;9.30;99.90;;;;;;5052761;28;20320;-52
2022/12/30 11:26:18;;;;;;;;;;;9.30;99.90;;;;;;5052544;28;19913;-55
2022/12/30 11:28:46;;;;;;;;;;;9.30;99.90;;;;;;5052425;28;19916;-52
2022/12/30 11:31:13;;;;;;;;;;;9.20;99.90;;;;;;5052383;28;19908;-51
2022/12/30 11:33:49;;;;;;;;;;;9.30;99.90;;;;;;5052505;28;19921;-54
2022/12/30 11:36:27;;;;;;;;;;;9.20;99.90;;;;;;5052377;28;20341;-54
2022/12/30 11:38:53;;;;;;;;;;;9.20;99.90;;;;;;5052154;28;20284;-54
2022/12/30 11:41:18;;;;;;;;;;;9.20;99.90;;;;;;5052244;28;19910;-54
2022/12/30 11:43:44;;;;;;;;;;;9.20;99.90;;;;;;5052285;28;20011;-55
2022/12/30 11:46:14;;;;;;;;;;;9.20;99.90;;;;;;5052123;28;19966;-55
2022/12/30 11:48:45;;;;;;;;;;;9.20;99.90;;;;;;5051872;28;19908;-55
2022/12/30 11:51:18;;;;;;;;;;;9.20;99.90;;;;;;5052284;28;19913;-49
2022/12/30 11:53:44;;;;;;;;;;;9.10;99.90;;;;;;5052026;28;19909;-55
2022/12/30 11:56:09;;;;;;;;;;;9.20;99.90;;;;;;5051875;28;19919;-52
2022/12/30 11:58:36;;;;;;;;;;;9.20;99.90;;;;;;5051750;28;19908;-53
2022/12/30 12:01:06;;;;;;;;;;;9.20;99.90;;;;;;5051974;28;19908;-53
2022/12/30 12:03:32;;;;;;;;;;;9.20;99.90;;;;;;5051831;28;19923;-54
2022/12/30 12:06:06;;;;;;;;;;;9.20;99.90;;;;;;5051680;28;19935;-57
2022/12/30 12:08:33;;;;;;;;;;;9.20;99.90;;;;;;5051383;28;19915;-54
2022/12/30 12:11:25;;;;;;;;;;;9.20;99.90;;;;;;5051516;28;20292;-52
2022/12/30 12:14:09;;;;;;;;;;;9.20;99.90;;;;;;5047711;28;19999;-51
2022/12/30 12:16:41;;;;;;;;;;;9.20;99.90;;;;;;5051386;28;19912;-51
2022/12/30 12:19:23;;;;;;;;;;;9.20;99.90;;;;;;5051268;28;19995;-50
2022/12/30 12:21:52;;;;;;;;;;;9.30;99.90;;;;;;5051409;28;19909;-53
2022/12/30 12:24:18;;;;;;;;;;;9.30;99.90;;;;;;5051476;28;19915;-52
2022/12/30 12:27:04;;;;;;;;;;;9.30;99.90;;;;;;5051339;28;19913;-49
2022/12/30 12:29:29;;;;;;;;;;;9.30;99.90;;;;;;5050706;28;19908;-52
2022/12/30 12:32:14;;;;;;;;;;;9.30;99.90;;;;;;5051342;28;20019;-50
2022/12/30 12:34:45;;;;;;;;;;;9.30;99.90;;;;;;5051446;28;19915;-54
2022/12/30 12:37:13;;;;;;;;;;;9.30;99.90;;;;;;5049831;28;19908;-54
2022/12/30 12:39:53;;;;;;;;;;;9.40;99.90;;;;;;5051031;28;19913;-50
2022/12/30 12:42:30;;;;;;;;;;;9.30;99.90;;;;;;5051167;28;19915;-53
2022/12/30 12:45:12;;;;;;;;;;;9.30;99.90;;;;;;5051450;28;19963;-52
2022/12/30 12:47:52;;;;;;;;;;;9.30;99.90;;;;;;5050905;28;19912;-54
2022/12/30 12:50:24;;;;;;;;;;;9.40;99.90;;;;;;5050762;28;20380;-51
2022/12/30 12:53:08;;;;;;;;;;;9.40;99.90;;;;;;5050991;28;20353;-50
2022/12/30 12:55:39;;;;;;;;;;;9.50;99.90;;;;;;5051010;28;19915;-53
2022/12/30 12:58:14;;;;;;;;;;;9.50;99.90;;;;;;5050833;28;19909;-52
2022/12/30 13:00:51;;;;;;;;;;;9.50;99.90;;;;;;5051121;28;19915;-54
2022/12/30 13:03:34;;;;;;;;;;;9.50;99.90;;;;;;5051255;28;19909;-54
2022/12/30 13:05:59;;;;;;;;;;;9.50;99.90;;;;;;5050915;28;20288;-56
2022/12/30 13:08:38;;;;;;;;;;;9.60;99.90;;;;;;5050873;28;19909;-54
2022/12/30 13:11:07;;;;;;;;;;;9.50;99.90;;;;;;5050806;28;20257;-53
2022/12/30 13:13:35;;;;;;;;;;;9.60;99.90;;;;;;5051073;28;19909;-54
2022/12/30 13:16:04;;;;;;;;;;;9.50;99.90;;;;;;5050928;28;19912;-54
2022/12/30 13:18:31;;;;;;;;;;;9.60;99.90;;;;;;5050623;28;19908;-55
2022/12/30 13:21:04;;;;;;;;;;;9.50;99.90;;;;;;5050695;28;19968;-54
2022/12/30 13:23:32;;;;;;;;;;;9.50;99.90;;;;;;5050824;28;19995;-54
2022/12/30 13:26:01;;;;;;;;;;;9.30;99.90;;;;;;5050725;28;19917;-55
2022/12/30 13:28:29;;;;;;;;;;;9.20;99.90;;;;;;5050530;28;20361;-54
2022/12/30 13:31:10;;;;;;;;;;;9.00;99.90;;;;;;5050763;28;19908;-50
2022/12/30 13:33:35;;;;;;;;;;;8.90;99.90;;;;;;5050909;28;20293;-55
2022/12/30 13:36:10;;;;;;;;;;;8.70;99.90;;;;;;5053627;28;19909;-53
2022/12/30 13:38:46;;;;;;;;;;;8.60;99.90;;;;;;5054466;28;19909;-55
2022/12/30 13:41:21;;;;;;;;;;;8.50;99.90;;;;;;5054456;28;19908;-53
2022/12/30 13:43:51;;;;;;;;;;;8.40;99.90;;;;;;5054467;28;19912;-54
2022/12/30 13:46:18;;;;;;;;;;;8.30;99.90;;;;;;5054336;28;20415;-54
2022/12/30 13:49:07;;;;;;;;;;;8.20;99.90;;;;;;5054144;28;19916;-54
2022/12/30 13:51:33;;;;;;;;;;;8.20;99.90;;;;;;5043215;28;20277;-52
2022/12/30 13:54:02;;;;;;;;;;;8.10;99.90;;;;;;5054251;28;19970;-56
2022/12/30 13:56:38;;;;;;;;;;;8.10;99.90;;;;;;5053985;28;19916;-54
2022/12/30 13:59:05;;;;;;;;;;;8.00;99.90;;;;;;5053965;28;19909;-51
2022/12/30 14:01:32;;;;;;;;;;;8.00;99.90;;;;;;5054214;28;19913;-50
2022/12/30 14:04:10;;;;;;;;;;;8.00;99.90;;;;;;5054199;28;19934;-53
2022/12/30 14:06:45;;;;;;;;;;;8.00;99.90;;;;;;5053704;28;19990;-54
2022/12/30 14:09:18;;;;;;;;;;;8.00;99.90;;;;;;5053829;28;19915;-55
2022/12/30 14:12:03;;;;;;;;;;;8.00;99.90;;;;;;5053824;28;19916;-52
2022/12/30 14:14:29;;;;;;;;;;;8.10;99.90;;;;;;5053829;28;19909;-53
2022/12/30 14:17:00;;;;;;;;;;;8.10;99.90;;;;;;5053713;28;19940;-50
2022/12/30 14:19:29;;;;;;;;;;;8.10;99.90;;;;;;5053610;28;20342;-55
2022/12/30 14:21:55;;;;;;;;;;;8.10;99.90;;;;;;5053704;28;19908;-52
2022/12/30 14:24:41;;;;;;;;;;;8.10;99.90;;;;;;5053644;28;19936;-55
2022/12/30 14:27:25;;;;;;;;;;;8.10;99.90;;;;;;5053360;28;19923;-52
2022/12/30 14:30:00;;;;;;;;;;;8.10;99.90;;;;;;5053403;28;20408;-52
2022/12/30 14:32:26;;;;;;;;;;;8.10;99.90;;;;;;5053823;28;19956;-52
2022/12/30 14:34:59;;;;;;;;;;;8.10;99.90;;;;;;5053521;28;19970;-52
2022/12/30 14:37:25;;;;;;;;;;;8.00;99.90;;;;;;5053078;28;20281;-54
2022/12/30 14:39:50;;;;;;;;;;;8.00;99.90;;;;;;5053278;28;19909;-54
2022/12/30 14:42:42;;;;;;;;;;;8.00;99.90;;;;;;5053294;28;19999;-54
2022/12/30 14:45:18;;;;;;;;;;;8.00;99.90;;;;;;5049227;28;20328;-55
2022/12/30 14:47:46;;;;;;;;;;;8.00;99.90;;;;;;5053070;28;20377;-56
2022/12/30 14:50:13;;;;;;;;;;;7.90;99.90;;;;;;5053031;28;19909;-53
2022/12/30 14:52:44;;;;;;;;;;;8.00;99.90;;;;;;5053026;28;19999;-51
2022/12/30 14:55:15;;;;;;;;;;;8.00;99.90;;;;;;5053213;28;19909;-55
2022/12/30 14:57:42;;;;;;;;;;;7.90;99.90;;;;;;5052777;28;19909;-54
2022/12/30 15:00:08;;;;;;;;;;;7.90;99.90;;;;;;5052857;28;19915;-55
2022/12/30 15:02:51;;;;;;;;;;;7.90;99.90;;;;;;5052914;28;19936;-55
2022/12/30 15:05:21;;;;;;;;;;;7.90;99.90;;;;;;5053217;28;19913;-52
2022/12/30 15:07:49;;;;;;;;;;;7.90;99.90;;;;;;5052592;28;20316;-54
2022/12/30 15:10:25;;;;;;;;;;;7.90;99.90;;;;;;5052636;28;20369;-54
2022/12/30 15:12:52;;;;;;;;;;;7.90;99.90;;;;;;5052819;28;19963;-52
2022/12/30 15:15:24;;;;;;;;;;;8.00;99.90;;;;;;5052783;28;19966;-53
2022/12/30 15:17:49;;;;;;;;;;;7.90;99.90;;;;;;5052879;28;19919;-53
2022/12/30 15:20:28;;;;;;;;;;;7.90;99.90;;;;;;5052428;28;20007;-50
2022/12/30 15:22:54;;;;;;;;;;;7.90;99.90;;;;;;5052829;28;19908;-53
2022/12/30 15:25:21;;;;;;;;;;;7.90;99.90;;;;;;5052546;28;19979;-54
2022/12/30 15:27:54;;;;;;;;;;;8.00;99.90;;;;;;5051213;28;20335;-53
2022/12/30 15:30:20;;;;;;;;;;;7.90;99.90;;;;;;5052270;28;19909;-53
2022/12/30 15:32:54;;;;;;;;;;;8.00;99.90;;;;;;5052333;28;20305;-54
2022/12/30 15:35:25;;;;;;;;;;;8.00;99.90;;;;;;5052626;28;19909;-53
2022/12/30 15:37:51;;;;;;;;;;;8.00;99.90;;;;;;5052236;28;19966;-54